Time;durP1;ratioP1;P1;durP2;ratioP2;P2;SDS_P1;SDS_P2;PMS_P1;PMS_P2;Temp;Humidity;BMP_temperature;BMP_pressure;BME280_temperature;BME280_humidity;BME280_pressure;Samples;Min_cycle;Max_cycle;Signal;HPM_P1;HPM_P2
2023/08/13 00:02:21;;;;;;;18.15;2.92;;;;;;;16.42;100.00;101711.44;5090774;28;20031;-79
2023/08/13 00:04:46;;;;;;;14.38;3.05;;;;;;;16.32;100.00;101714.22;5090852;28;20113;-78
2023/08/13 00:07:12;;;;;;;12.20;2.58;;;;;;;16.25;100.00;101715.81;5072550;28;20464;-79
2023/08/13 00:09:40;;;;;;;15.43;2.60;;;;;;;16.19;100.00;101703.84;5090870;28;20056;-78
2023/08/13 00:12:05;;;;;;;14.88;3.22;;;;;;;16.12;100.00;101700.13;5090735;28;20478;-80
2023/08/13 00:14:31;;;;;;;14.85;3.33;;;;;;;16.06;100.00;101702.56;5090970;28;20111;-79
2023/08/13 00:16:56;;;;;;;13.73;3.05;;;;;;;16.02;100.00;101707.41;5090900;28;20127;-79
2023/08/13 00:19:21;;;;;;;19.92;3.63;;;;;;;15.98;100.00;101708.72;5090493;28;20078;-78
2023/08/13 00:21:47;;;;;;;19.58;3.53;;;;;;;15.96;100.00;101698.13;5090832;28;20030;-80
2023/08/13 00:24:12;;;;;;;17.27;3.33;;;;;;;15.97;100.00;101707.88;5090680;28;20036;-79
2023/08/13 00:26:37;;;;;;;14.73;3.38;;;;;;;15.94;100.00;101699.28;5090532;28;20493;-79
2023/08/13 00:29:04;;;;;;;14.85;2.72;;;;;;;15.89;100.00;101702.41;5090577;28;20031;-80
2023/08/13 00:31:30;;;;;;;12.63;2.67;;;;;;;15.83;100.00;101703.03;5090461;28;20044;-79
2023/08/13 00:33:55;;;;;;;16.63;3.05;;;;;;;15.77;100.00;101709.81;5090758;28;20089;-79
2023/08/13 00:36:20;;;;;;;13.02;2.72;;;;;;;15.69;100.00;101707.91;5091061;28;20119;-79
2023/08/13 00:38:46;;;;;;;12.55;2.80;;;;;;;15.63;100.00;101702.28;5055929;28;20375;-79
2023/08/13 00:41:12;;;;;;;19.48;3.35;;;;;;;15.58;100.00;101693.84;5071932;28;20058;-80
2023/08/13 00:43:37;;;;;;;14.40;2.88;;;;;;;15.56;100.00;101690.50;5072275;28;20036;-79
2023/08/13 00:46:04;;;;;;;14.50;2.85;;;;;;;15.54;100.00;101701.38;5090946;28;20059;-79
2023/08/13 00:48:30;;;;;;;16.58;2.83;;;;;;;15.50;100.00;101700.81;5090531;28;20396;-79
2023/08/13 00:50:56;;;;;;;16.83;3.22;;;;;;;15.47;100.00;101701.13;5072661;28;20476;-80
2023/08/13 00:53:23;;;;;;;17.67;3.95;;;;;;;15.42;100.00;101700.72;5072196;28;20126;-79
2023/08/13 00:55:48;;;;;;;19.38;3.20;;;;;;;15.39;100.00;101701.03;5071986;28;20059;-79
2023/08/13 00:58:14;;;;;;;13.32;2.42;;;;;;;15.37;100.00;101694.97;5071938;28;20453;-79
2023/08/13 01:00:40;;;;;;;14.80;3.25;;;;;;;15.34;100.00;101697.94;5090707;28;20036;-79
2023/08/13 01:03:07;;;;;;;11.70;2.83;;;;;;;15.32;100.00;101695.41;5090679;28;20203;-78
2023/08/13 01:06:01;;;;;;;18.88;3.72;;;;;;;15.32;100.00;101697.25;5090494;28;20055;-79
2023/08/13 01:08:48;;;;;;;19.55;2.72;;;;;;;15.33;100.00;101697.09;5093104;28;20467;-80
2023/08/13 01:11:24;;;;;;;11.20;2.42;;;;;;;15.33;100.00;101698.94;5093548;28;20501;-80
2023/08/13 01:14:08;;;;;;;13.45;2.58;;;;;;;15.32;100.00;101694.56;5094564;28;20083;-79
2023/08/13 01:16:41;;;;;;;18.10;4.47;;;;;;;15.31;100.00;101704.44;5094446;28;20028;-78
2023/08/13 01:19:09;;;;;;;15.77;3.35;;;;;;;15.32;100.00;101698.09;5093930;28;20112;-79
2023/08/13 01:21:34;;;;;;;15.13;2.97;;;;;;;15.32;100.00;101700.78;5093853;28;20097;-79
2023/08/13 01:24:00;;;;;;;14.70;2.60;;;;;;;15.31;100.00;101698.25;5075624;28;20433;-78
2023/08/13 01:26:33;;;;;;;17.15;4.13;;;;;;;15.28;100.00;101707.41;5075298;28;20033;-79
2023/08/13 01:29:06;;;;;;;14.75;3.20;;;;;;;15.25;100.00;101699.69;5094071;28;20070;-78
2023/08/13 01:31:35;;;;;;;21.35;3.00;;;;;;;15.26;100.00;101700.53;5093785;28;20136;-79
2023/08/13 01:34:02;;;;;;;16.95;3.50;;;;;;;15.27;100.00;101702.22;5093775;28;20024;-78
2023/08/13 01:36:30;;;;;;;17.90;3.72;;;;;;;15.27;100.00;101695.03;5093465;28;20107;-79
2023/08/13 01:38:58;;;;;;;22.08;3.78;;;;;;;15.27;100.00;101697.72;5093491;28;20430;-78
2023/08/13 01:41:24;;;;;;;16.40;3.42;;;;;;;15.26;100.00;101697.84;5093788;28;20024;-79
2023/08/13 01:43:49;;;;;;;14.93;3.28;;;;;;;15.27;100.00;101699.53;5093496;28;20080;-79
2023/08/13 01:46:14;;;;;;;14.63;3.20;;;;;;;15.30;100.00;101693.88;5093391;28;20111;-78
2023/08/13 01:48:40;;;;;;;16.90;3.78;;;;;;;15.36;100.00;101701.34;5093322;28;20032;-78
2023/08/13 01:51:05;;;;;;;18.40;4.40;;;;;;;15.40;100.00;101697.34;5092867;28;20063;-78
2023/08/13 01:53:30;;;;;;;15.05;3.20;;;;;;;15.41;100.00;101696.34;5093023;28;20039;-79
2023/08/13 01:55:56;;;;;;;23.35;3.47;;;;;;;15.42;100.00;101703.41;5093110;28;20105;-79
2023/08/13 01:58:21;;;;;;;15.80;3.03;;;;;;;15.40;100.00;101693.81;5093322;28;20378;-79
2023/08/13 02:00:46;;;;;;;11.70;3.33;;;;;;;15.39;100.00;101694.81;5093018;28;20145;-78
2023/08/13 02:03:12;;;;;;;17.73;3.10;;;;;;;15.34;100.00;101688.06;5093012;28;20028;-79
2023/08/13 02:05:37;;;;;;;15.68;3.47;;;;;;;15.31;100.00;101690.19;5092978;28;20102;-79
2023/08/13 02:08:03;;;;;;;11.95;3.08;;;;;;;15.30;100.00;101689.38;5092892;28;20024;-79
2023/08/13 02:10:31;;;;;;;15.77;3.63;;;;;;;15.34;100.00;101690.72;5092519;28;20035;-77
2023/08/13 02:12:57;;;;;;;13.27;3.38;;;;;;;15.38;100.00;101685.94;5092598;28;20172;-78
2023/08/13 02:15:23;;;;;;;20.83;3.53;;;;;;;15.49;100.00;101695.59;5074695;28;20036;-77
2023/08/13 02:17:49;;;;;;;14.80;3.38;;;;;;;15.58;100.00;101694.69;5073988;28;20076;-79
2023/08/13 02:20:14;;;;;;;18.92;3.75;;;;;;;15.63;100.00;101691.53;5092664;28;20119;-77
2023/08/13 02:22:39;;;;;;;16.55;3.50;;;;;;;15.66;100.00;101691.28;5092425;28;20066;-77
2023/08/13 02:25:06;;;;;;;15.48;3.20;;;;;;;15.69;100.00;101682.91;5092295;28;20111;-77
2023/08/13 02:27:31;;;;;;;16.63;3.03;;;;;;;15.67;100.00;101683.06;5092400;28;20047;-77
2023/08/13 02:29:57;;;;;;;14.18;3.17;;;;;;;15.71;100.00;101685.44;5092516;28;20028;-77
2023/08/13 02:32:22;;;;;;;14.85;3.50;;;;;;;15.74;100.00;101685.16;5092325;28;20032;-78
2023/08/13 02:34:47;;;;;;;18.65;3.63;;;;;;;15.77;100.00;101687.53;5074273;28;20034;-78
2023/08/13 02:37:13;;;;;;;13.48;3.00;;;;;;;15.78;100.00;101682.03;5092106;28;20210;-79
2023/08/13 02:39:39;;;;;;;15.10;3.42;;;;;;;15.82;100.00;101690.59;5092101;28;20067;-79
2023/08/13 02:42:04;;;;;;;20.98;3.30;;;;;;;15.85;100.00;101692.97;5092506;28;20039;-79
2023/08/13 02:44:30;;;;;;;15.82;3.13;;;;;;;15.85;100.00;101688.47;5092037;28;20040;-79
2023/08/13 02:46:55;;;;;;;15.48;3.10;;;;;;;15.84;100.00;101689.47;5092198;28;20028;-79
2023/08/13 02:49:21;;;;;;;13.13;2.90;;;;;;;15.85;100.00;101684.94;5091942;28;20055;-79
2023/08/13 02:51:46;;;;;;;15.63;3.10;;;;;;;15.81;100.00;101689.78;5091747;28;20162;-78
2023/08/13 02:54:11;;;;;;;16.00;3.28;;;;;;;15.79;100.00;101681.00;5091773;28;20452;-78
2023/08/13 02:56:37;;;;;;;19.10;3.08;;;;;;;15.79;100.00;101675.66;5091408;28;20056;-78
2023/08/13 02:59:03;;;;;;;9.35;2.50;;;;;;;15.79;100.00;101674.81;5073562;28;20092;-79
2023/08/13 03:01:28;;;;;;;12.32;2.53;;;;;;;15.74;100.00;101679.78;5091676;28;20505;-78
2023/08/13 03:03:54;;;;;;;15.27;3.22;;;;;;;15.66;100.00;101681.38;5092024;28;20433;-79
2023/08/13 03:06:21;;;;;;;14.02;2.78;;;;;;;15.61;100.00;101672.94;5073308;28;20115;-77
2023/08/13 03:08:47;;;;;;;11.15;3.15;;;;;;;15.60;100.00;101675.75;5091440;28;20028;-77
2023/08/13 03:11:12;;;;;;;14.50;3.00;;;;;;;15.58;100.00;101670.53;5091332;28;20042;-78
2023/08/13 03:13:38;;;;;;;16.10;3.05;;;;;;;15.58;100.00;101675.91;5091400;28;20116;-77
2023/08/13 03:16:03;;;;;;;15.02;2.60;;;;;;;15.56;100.00;101677.09;5073185;28;20032;-77
2023/08/13 03:18:29;;;;;;;13.40;2.90;;;;;;;15.54;100.00;101673.69;5091621;28;20164;-78
2023/08/13 03:20:55;;;;;;;10.73;2.80;;;;;;;15.55;100.00;101678.91;5091093;28;20139;-77
2023/08/13 03:23:20;;;;;;;11.93;2.58;;;;;;;15.56;100.00;101687.81;5091306;28;20039;-77
2023/08/13 03:25:46;;;;;;;13.48;2.70;;;;;;;15.56;100.00;101677.09;5091277;28;20031;-78
2023/08/13 03:28:11;;;;;;;14.30;3.08;;;;;;;15.56;100.00;101675.22;5091089;28;20047;-78
2023/08/13 03:30:36;;;;;;;14.90;2.83;;;;;;;15.57;100.00;101674.25;5090258;28;20161;-78
2023/08/13 03:33:02;;;;;;;12.65;2.47;;;;;;;15.58;100.00;101667.03;5090978;28;20468;-78
2023/08/13 03:35:27;;;;;;;22.30;2.80;;;;;;;15.55;100.00;101675.38;5073196;28;20036;-78
2023/08/13 03:37:53;;;;;;;13.95;3.15;;;;;;;15.51;100.00;101667.66;5090801;28;20034;-78
2023/08/13 03:40:18;;;;;;;15.98;2.72;;;;;;;15.51;100.00;101673.00;5072634;28;20036;-78
2023/08/13 03:42:44;;;;;;;12.75;2.50;;;;;;;15.51;100.00;101669.50;5091018;28;20522;-78
2023/08/13 03:45:09;;;;;;;16.25;3.28;;;;;;;15.51;100.00;101672.19;5090842;28;20522;-77
2023/08/13 03:47:35;;;;;;;16.25;3.03;;;;;;;15.48;100.00;101659.03;5090461;28;20032;-79
2023/08/13 03:50:01;;;;;;;21.83;3.10;;;;;;;15.44;100.00;101665.72;5090565;28;20030;-77
2023/08/13 03:52:26;;;;;;;11.52;2.40;;;;;;;15.38;100.00;101667.16;5090715;28;20132;-77
2023/08/13 03:54:52;;;;;;;14.35;2.92;;;;;;;15.31;100.00;101674.13;5090842;28;20126;-77
2023/08/13 03:57:17;;;;;;;15.93;2.72;;;;;;;15.25;100.00;101677.41;5090979;28;20110;-80
2023/08/13 03:59:43;;;;;;;20.38;3.55;;;;;;;15.24;100.00;101683.75;5072994;28;20032;-78
2023/08/13 04:02:08;;;;;;;11.93;3.08;;;;;;;15.21;100.00;101694.75;5091376;28;20443;-79
2023/08/13 04:04:33;;;;;;;14.40;2.95;;;;;;;15.14;100.00;101687.31;5056175;28;20051;-79
2023/08/13 04:06:59;;;;;;;11.30;2.92;;;;;;;15.13;100.00;101691.00;5091306;28;20042;-79
2023/08/13 04:09:24;;;;;;;15.05;2.60;;;;;;;15.12;100.00;101689.31;5090813;28;20031;-78
2023/08/13 04:11:49;;;;;;;12.57;2.72;;;;;;;15.11;100.00;101692.97;5090214;28;20048;-79
2023/08/13 04:14:15;;;;;;;17.50;3.40;;;;;;;15.08;100.00;101687.91;5072250;28;20112;-79
2023/08/13 04:16:40;;;;;;;13.32;3.13;;;;;;;15.09;100.00;101689.63;5090928;28;20043;-79
2023/08/13 04:19:07;;;;;;;17.73;3.10;;;;;;;15.12;100.00;101689.31;5090463;28;20244;-77
2023/08/13 04:21:32;;;;;;;13.63;2.75;;;;;;;15.12;100.00;101689.31;5090302;28;20039;-78
2023/08/13 04:23:57;;;;;;;11.95;2.72;;;;;;;15.11;100.00;101694.81;5055595;28;20417;-79
2023/08/13 04:26:24;;;;;;;18.58;2.65;;;;;;;15.13;100.00;101692.84;5090330;28;20036;-79
2023/08/13 04:28:49;;;;;;;12.90;3.25;;;;;;;15.13;100.00;101696.34;5090155;28;20036;-79
2023/08/13 04:31:16;;;;;;;15.13;3.08;;;;;;;15.18;100.00;101703.94;5072461;28;20455;-79
2023/08/13 04:33:42;;;;;;;13.90;2.63;;;;;;;15.18;100.00;101703.09;5090564;28;20120;-78
2023/08/13 04:36:07;;;;;;;16.48;3.17;;;;;;;15.20;100.00;101706.47;5072575;28;20036;-79
2023/08/13 04:38:33;;;;;;;14.82;3.28;;;;;;;15.20;100.00;101710.00;5072243;28;20334;-79
2023/08/13 04:41:01;;;;;;;12.13;2.90;;;;;;;15.20;100.00;101707.34;5091385;28;20493;-79
2023/08/13 04:43:27;;;;;;;14.90;4.40;;;;;;;15.23;100.00;101709.72;5094982;28;20028;-78
2023/08/13 04:45:52;;;;;;;13.60;2.65;;;;;;;15.29;100.00;101719.00;5094596;28;20476;-75
2023/08/13 04:48:38;;;;;;;18.20;3.30;;;;;;;15.32;100.00;101705.31;5076621;28;20112;-78
2023/08/13 04:51:04;;;;;;;13.98;2.75;;;;;;;15.37;100.00;101713.72;5075734;28;20036;-78
2023/08/13 04:53:29;;;;;;;13.20;2.67;;;;;;;15.42;100.00;101705.22;5094299;28;20043;-79
2023/08/13 04:55:54;;;;;;;10.90;2.40;;;;;;;15.48;100.00;101710.00;5075879;28;20028;-78
2023/08/13 04:58:20;;;;;;;8.07;2.33;;;;;;;15.50;100.00;101703.50;5094360;28;20120;-78
2023/08/13 05:00:45;;;;;;;16.58;3.10;;;;;;;15.55;100.00;101707.56;5094885;28;20077;-79
2023/08/13 05:03:10;;;;;;;18.75;3.15;;;;;;;15.55;100.00;101711.09;5075961;28;20375;-79
2023/08/13 05:05:36;;;;;;;10.77;2.53;;;;;;;15.55;100.00;101708.41;5076051;28;20056;-79
2023/08/13 05:08:01;;;;;;;16.58;2.85;;;;;;;15.52;100.00;101709.56;5094163;28;20039;-79
2023/08/13 05:10:27;;;;;;;13.77;2.75;;;;;;;15.51;100.00;101713.25;5075574;28;20036;-80
2023/08/13 05:12:52;;;;;;;13.82;3.13;;;;;;;15.50;100.00;101710.72;5093477;28;20058;-80
2023/08/13 05:15:17;;;;;;;17.05;2.90;;;;;;;15.50;100.00;101703.50;5093923;28;20032;-80
2023/08/13 05:17:43;;;;;;;11.82;2.55;;;;;;;15.46;100.00;101702.09;5093732;28;20030;-78
2023/08/13 05:20:08;;;;;;;12.77;2.65;;;;;;;15.41;100.00;101704.41;5093412;28;20455;-79
2023/08/13 05:22:34;;;;;;;10.40;2.50;;;;;;;15.37;100.00;101711.03;5093691;28;20368;-79
2023/08/13 05:24:59;;;;;;;16.38;2.88;;;;;;;15.33;100.00;101701.59;5093858;28;20024;-78
2023/08/13 05:27:24;;;;;;;17.73;3.00;;;;;;;15.28;100.00;101701.22;5093818;28;20040;-78
2023/08/13 05:29:50;;;;;;;18.65;2.75;;;;;;;15.26;100.00;101713.94;5093909;28;20416;-79
2023/08/13 05:32:16;;;;;;;15.15;2.58;;;;;;;15.24;100.00;101710.56;5093040;28;20036;-78
2023/08/13 05:34:43;;;;;;;15.85;3.00;;;;;;;15.23;100.00;101704.34;5093806;28;20096;-78
2023/08/13 05:37:08;;;;;;;17.38;3.00;;;;;;;15.23;100.00;101707.03;5093423;28;20412;-79
2023/08/13 05:39:34;;;;;;;12.57;3.03;;;;;;;15.24;100.00;101706.06;5093617;28;20042;-78
2023/08/13 05:41:59;;;;;;;17.85;2.70;;;;;;;15.30;100.00;101708.13;5093194;28;20059;-78
2023/08/13 05:44:24;;;;;;;11.82;2.60;;;;;;;15.43;100.00;101715.81;5093497;28;20028;-79
2023/08/13 05:46:50;;;;;;;9.18;2.50;;;;;;;15.55;100.00;101707.56;5093212;28;20181;-79
2023/08/13 05:49:15;;;;;;;11.00;2.53;;;;;;;15.64;100.00;101703.97;5092777;28;20039;-79
2023/08/13 05:51:40;;;;;;;13.68;2.90;;;;;;;15.67;100.00;101707.22;5092866;28;20060;-80
2023/08/13 05:54:08;;;;;;;14.00;2.80;;;;;;;15.65;100.00;101708.34;5074403;28;20436;-79
2023/08/13 05:56:34;;;;;;;17.42;2.80;;;;;;;15.62;100.00;101706.81;5093220;28;20059;-80
2023/08/13 05:59:00;;;;;;;14.80;2.80;;;;;;;15.64;100.00;101703.97;5092908;28;20479;-79
2023/08/13 06:01:26;;;;;;;16.25;3.17;;;;;;;15.69;100.00;101707.91;5057798;28;20118;-80
2023/08/13 06:03:51;;;;;;;15.25;2.83;;;;;;;15.78;100.00;101713.38;5074903;28;20032;-80
2023/08/13 06:06:18;;;;;;;19.00;2.72;;;;;;;15.84;100.00;101710.09;5074427;28;20032;-79
2023/08/13 06:08:44;;;;;;;14.48;2.88;;;;;;;15.91;100.00;101713.00;5092897;28;20036;-80
2023/08/13 06:11:09;;;;;;;14.30;2.75;;;;;;;15.95;100.00;101717.06;5057651;28;20104;-79
2023/08/13 06:13:38;;;;;;;12.70;2.95;;;;;;;15.96;100.00;101719.59;5057712;28;20432;-79
2023/08/13 06:16:05;;;;;;;17.13;4.45;;;;;;;15.96;100.00;101716.06;5092533;28;20153;-80
2023/08/13 06:18:30;;;;;;;21.23;4.13;;;;;;;15.95;100.00;101715.22;5074672;28;20039;-79
2023/08/13 06:20:56;;;;;;;11.45;3.00;;;;;;;15.93;100.00;101714.53;5092687;28;20039;-80
2023/08/13 06:23:21;;;;;;;12.75;2.92;;;;;;;15.94;100.00;101705.47;5074328;28;20046;-80
2023/08/13 06:25:46;;;;;;;13.57;2.92;;;;;;;16.02;100.00;101708.25;5092793;28;20055;-80
2023/08/13 06:28:12;;;;;;;15.13;2.97;;;;;;;16.13;100.00;101714.38;5092499;28;20139;-80
2023/08/13 06:30:37;;;;;;;15.25;3.20;;;;;;;16.24;100.00;101721.34;5074411;28;20077;-80
2023/08/13 06:33:03;;;;;;;16.60;2.90;;;;;;;16.41;100.00;101723.19;5092692;28;20349;-79
2023/08/13 06:35:29;;;;;;;10.68;2.72;;;;;;;16.61;100.00;101710.38;5092549;28;20054;-79
2023/08/13 06:37:54;;;;;;;13.95;2.72;;;;;;;16.80;100.00;101713.88;5092420;28;20093;-80
2023/08/13 06:40:20;;;;;;;10.20;3.33;;;;;;;17.00;100.00;101715.34;5074080;28;20384;-80
2023/08/13 06:42:45;;;;;;;10.45;2.50;;;;;;;17.18;100.00;101725.19;5074231;28;20356;-79
2023/08/13 06:45:12;;;;;;;12.95;2.67;;;;;;;17.30;100.00;101709.59;5092739;28;20059;-79
2023/08/13 06:47:38;;;;;;;7.78;2.60;;;;;;;17.42;100.00;101713.66;5092789;28;20100;-80
2023/08/13 06:50:04;;;;;;;12.48;2.60;;;;;;;17.54;100.00;101716.91;5074019;28;20093;-80
2023/08/13 06:52:29;;;;;;;9.65;2.42;;;;;;;17.69;100.00;101722.50;5092816;28;20058;-80
2023/08/13 06:54:55;;;;;;;12.27;2.83;;;;;;;17.79;100.00;101720.50;5092799;28;20325;-80
2023/08/13 06:57:20;;;;;;;16.77;2.58;;;;;;;17.81;100.00;101715.81;5057362;28;20333;-79
2023/08/13 06:59:46;;;;;;;13.68;2.60;;;;;;;17.86;100.00;101724.22;5092022;28;20421;-79
2023/08/13 07:02:11;;;;;;;9.38;2.78;;;;;;;17.91;100.00;101715.69;5091901;28;20043;-80
2023/08/13 07:04:37;;;;;;;10.70;2.67;;;;;;;17.91;100.00;101726.44;5092035;28;20025;-80
2023/08/13 07:07:02;;;;;;;8.52;2.65;;;;;;;17.91;100.00;101727.28;5091871;28;20067;-79
2023/08/13 07:09:28;;;;;;;9.75;2.53;;;;;;;18.00;100.00;101716.53;5073738;28;20028;-84
2023/08/13 07:11:54;;;;;;;9.60;2.30;;;;;;;18.19;100.00;101715.38;5056183;28;20059;-80
2023/08/13 07:14:19;;;;;;;8.00;2.55;;;;;;;18.36;100.00;101725.13;5073848;28;20122;-79
2023/08/13 07:16:46;;;;;;;12.93;2.97;;;;;;;18.41;100.00;101722.78;5073308;28;20044;-78
2023/08/13 07:19:12;;;;;;;14.88;3.53;;;;;;;18.56;100.00;101716.69;5092279;28;20028;-80
2023/08/13 07:21:37;;;;;;;9.82;2.80;;;;;;;18.69;100.00;101719.72;5091644;28;20028;-78
2023/08/13 07:24:04;;;;;;;12.57;2.97;;;;;;;18.78;100.00;101723.22;5091748;28;20077;-79
2023/08/13 07:26:32;;;;;;;13.85;3.42;;;;;;;18.78;100.00;101725.91;5091412;28;20432;-77
2023/08/13 07:28:58;;;;;;;8.95;2.00;;;;;;;18.82;100.00;101721.84;5091555;28;20028;-79
2023/08/13 07:31:24;;;;;;;14.45;2.65;;;;;;;18.96;100.00;101725.72;5091446;28;20325;-78
2023/08/13 07:33:51;;;;;;;11.32;2.63;;;;;;;19.11;100.00;101728.53;5072855;28;20059;-78
2023/08/13 07:36:17;;;;;;;12.32;2.75;;;;;;;19.14;100.00;101723.66;5091434;28;20464;-78
2023/08/13 07:38:42;;;;;;;7.80;2.25;;;;;;;19.12;100.00;101727.53;5056478;28;20031;-80
2023/08/13 07:41:08;;;;;;;11.75;2.40;;;;;;;19.06;100.00;101723.66;5091186;28;20058;-76
2023/08/13 07:43:38;;;;;;;9.98;2.13;;;;;;;18.99;100.00;101731.63;5073410;28;20062;-75
2023/08/13 07:46:04;;;;;;;9.38;2.47;;;;;;;19.01;100.00;101734.97;5095374;28;20047;-79
2023/08/13 07:48:30;;;;;;;11.32;2.20;;;;;;;19.09;100.00;101730.59;5090848;28;20032;-77
2023/08/13 07:50:55;;;;;;;13.43;2.45;;;;;;;19.09;100.00;101730.59;5090917;28;20027;-75
2023/08/13 07:53:21;;;;;;;9.90;2.67;;;;;;;19.10;100.00;101733.09;5090978;28;20035;-75
2023/08/13 07:55:49;;;;;;;11.45;2.20;;;;;;;19.07;100.00;101730.75;5091344;28;20043;-75
2023/08/13 07:58:15;;;;;;;11.05;1.95;;;;;;;18.99;100.00;101737.03;5091310;28;20035;-76
2023/08/13 08:00:41;;;;;;;9.80;2.78;;;;;;;18.93;100.00;101731.47;5073240;28;20059;-74
2023/08/13 08:03:06;;;;;;;8.77;2.53;;;;;;;18.89;100.00;101733.69;5091317;28;20421;-75
2023/08/13 08:05:32;;;;;;;8.68;2.22;;;;;;;19.00;100.00;101732.47;5090893;28;20028;-79
2023/08/13 08:07:57;;;;;;;8.38;2.30;;;;;;;19.05;100.00;101727.41;5072838;28;20055;-75
2023/08/13 08:10:23;;;;;;;8.02;2.70;;;;;;;19.13;100.00;101737.31;5090427;28;20393;-78
2023/08/13 08:12:49;;;;;;;8.35;2.15;;;;;;;19.15;100.00;101730.75;5094175;28;20074;-77
2023/08/13 08:15:15;;;;;;;6.63;1.55;;;;;;;19.19;100.00;101734.75;5092274;28;20111;-77
2023/08/13 08:17:40;;;;;;;6.97;1.90;;;;;;;19.29;100.00;101731.88;5091333;28;20036;-77
2023/08/13 08:20:07;;;;;;;8.95;2.03;;;;;;;19.36;100.00;101730.16;5074149;28;20044;-76
2023/08/13 08:22:33;;;;;;;10.73;1.85;;;;;;;19.53;100.00;101738.16;5091417;28;20044;-75
2023/08/13 08:24:58;;;;;;;8.27;2.10;;;;;;;19.63;100.00;101736.09;5090884;28;20366;-75
2023/08/13 08:27:24;;;;;;;8.05;1.83;;;;;;;19.68;100.00;101722.88;5090808;28;20032;-76
2023/08/13 08:29:49;;;;;;;7.45;1.95;;;;;;;19.60;100.00;101727.50;5090518;28;20482;-76
2023/08/13 08:32:14;;;;;;;5.53;1.67;;;;;;;19.71;100.00;101730.63;5090496;28;20040;-75
2023/08/13 08:34:40;;;;;;;7.82;1.80;;;;;;;19.85;100.00;101720.94;5072321;28;20032;-76
2023/08/13 08:37:10;;;;;;;7.78;1.70;;;;;;;19.92;100.00;101721.09;5090938;28;20444;-75
2023/08/13 08:39:36;;;;;;;7.83;2.30;;;;;;;19.77;100.00;101718.28;5090847;28;20032;-76
2023/08/13 08:42:01;;;;;;;5.38;1.33;;;;;;;19.68;100.00;101724.75;5090781;28;20268;-77
2023/08/13 08:44:29;;;;;;;7.88;1.40;;;;;;;19.61;100.00;101718.38;5090918;28;20384;-76
2023/08/13 08:46:56;;;;;;;6.03;1.60;;;;;;;19.60;100.00;101720.25;5090749;28;20052;-75
2023/08/13 08:49:22;;;;;;;7.13;1.55;;;;;;;19.73;100.00;101719.66;5090526;28;20111;-73
2023/08/13 08:51:48;;;;;;;10.50;1.65;;;;;;;19.85;100.00;101723.63;5090171;28;20111;-78
2023/08/13 08:54:15;;;;;;;6.28;2.00;;;;;;;19.83;100.00;101724.88;5090415;28;20036;-76
2023/08/13 08:56:40;;;;;;;8.73;1.90;;;;;;;19.75;100.00;101733.81;5090307;28;20028;-76
2023/08/13 08:59:06;;;;;;;8.30;1.55;;;;;;;19.73;100.00;101723.22;5090579;28;20126;-77
2023/08/13 09:01:32;;;;;;;8.13;1.75;;;;;;;19.70;100.00;101723.53;5089738;28;20060;-75
2023/08/13 09:03:58;;;;;;;4.25;1.40;;;;;;;19.68;100.00;101717.47;5090343;28;20051;-76
2023/08/13 09:06:23;;;;;;;4.85;1.30;;;;;;;19.76;100.00;101723.84;5090263;28;20036;-76
2023/08/13 09:08:49;;;;;;;4.40;1.50;;;;;;;19.68;100.00;101709.38;5090245;28;20068;-79
2023/08/13 09:11:14;;;;;;;8.02;1.80;;;;;;;19.79;100.00;101715.44;5071814;28;20043;-75
2023/08/13 09:13:48;;;;;;;3.60;1.35;;;;;;;19.86;100.00;101719.09;5090592;28;20436;-75
2023/08/13 09:16:14;;;;;;;8.35;2.20;;;;;;;19.86;100.00;101714.53;5090984;28;20385;-75
2023/08/13 09:18:39;;;;;;;6.10;1.70;;;;;;;19.93;100.00;101711.97;5090785;28;20457;-74
2023/08/13 09:21:05;;;;;;;4.35;1.73;;;;;;;20.02;100.00;101710.03;5090493;28;20392;-73
2023/08/13 09:23:30;;;;;;;10.10;2.22;;;;;;;20.16;100.00;101708.41;5090624;28;20117;-74
2023/08/13 09:25:57;;;;;;;4.35;1.88;;;;;;;20.16;100.00;101714.66;5091534;28;20028;-74
2023/08/13 09:28:24;;;;;;;8.75;1.75;;;;;;;20.20;100.00;101709.75;5074010;28;20039;-73
2023/08/13 09:30:50;;;;;;;4.47;1.70;;;;;;;20.18;100.00;101706.34;5094408;28;20028;-73
2023/08/13 09:33:17;;;;;;;5.75;1.75;;;;;;;20.30;100.00;101677.03;5093697;28;20523;-72
2023/08/13 09:35:44;;;;;;;4.05;1.65;;;;;;;20.48;100.00;101701.88;5095191;28;20346;-73
2023/08/13 09:38:10;;;;;;;5.88;1.77;;;;;;;20.78;100.00;101702.78;5095489;28;20035;-73
2023/08/13 09:40:35;;;;;;;8.00;1.50;;;;;;;20.91;100.00;101699.41;5077089;28;20035;-72
2023/08/13 09:43:06;;;;;;;3.78;1.95;;;;;;;20.93;100.00;101689.25;5095424;28;20169;-72
2023/08/13 09:45:32;;;;;;;;;;;;;;;20.90;100.00;101686.06;5077733;28;20370;-72
2023/08/13 09:48:03;;;;;;;3.70;1.25;;;;;;;20.88;100.00;101680.03;5077045;28;20022;-73
2023/08/13 09:50:34;;;;;;;3.35;1.38;;;;;;;20.81;100.00;101684.50;5095473;28;20100;-73
2023/08/13 09:53:01;;;;;;;6.35;1.50;;;;;;;20.84;100.00;101684.13;5077329;28;20028;-71
2023/08/13 09:55:32;;;;;;;6.32;1.60;;;;;;;20.95;100.00;101680.97;5093908;28;20028;-76
2023/08/13 09:58:04;;;;;;;7.63;1.23;;;;;;;21.08;100.00;101678.44;5076629;28;20141;-72
2023/08/13 10:00:30;;;;;;;2.97;1.38;;;;;;;21.24;100.00;101671.13;5060360;28;20036;-73
2023/08/13 10:02:56;;;;;;;4.13;1.40;;;;;;;21.38;100.00;101678.38;5077148;28;20081;-72
2023/08/13 10:05:21;;;;;;;4.28;1.48;;;;;;;21.68;100.00;101672.91;5095539;28;20064;-73
2023/08/13 10:07:47;;;;;;;4.13;1.33;;;;;;;22.02;100.00;101682.19;5076929;28;20035;-73
2023/08/13 10:10:13;;;;;;;7.22;1.70;;;;;;;22.18;100.00;101679.19;5093312;28;20028;-74
2023/08/13 10:12:39;;;;;;;3.17;1.23;;;;;;;22.29;100.00;101687.84;5074632;28;20075;-72
2023/08/13 10:15:06;;;;;;;2.80;1.13;;;;;;;21.98;100.00;101680.88;5075280;28;20093;-71
2023/08/13 10:17:32;;;;;;;2.85;1.25;;;;;;;21.87;100.00;101675.97;5076185;28;20042;-72
2023/08/13 10:19:59;;;;;;;8.80;1.60;;;;;;;21.87;100.00;101665.16;5094185;28;20114;-75
2023/08/13 10:22:53;;;;;;;3.38;1.35;;;;;;;22.18;100.00;101684.63;5094142;28;20028;-75
2023/08/13 10:25:32;;;;;;;3.53;1.15;;;;;;;22.51;100.00;101672.34;5091510;28;20048;-75
2023/08/13 10:27:58;;;;;;;2.35;1.30;;;;;;;22.74;100.00;101676.69;5075101;28;20024;-75
2023/08/13 10:30:23;;;;;;;5.70;1.60;;;;;;;22.61;100.00;101670.13;5093249;28;20422;-76
2023/08/13 10:32:57;;;;;;;3.38;1.50;;;;;;;22.31;100.00;101674.91;5074257;28;20028;-72
2023/08/13 10:35:38;;;;;;;4.70;1.40;;;;;;;22.17;100.00;101658.53;5074333;28;20036;-74
2023/08/13 10:38:04;;;;;;;;;;;;;;;21.98;100.00;101662.75;5092757;28;20084;-75
2023/08/13 10:40:30;;;;;;;4.63;1.10;;;;;;;22.17;100.00;101665.84;5092269;28;19912;-75
2023/08/13 10:42:57;;;;;;;3.75;1.30;;;;;;;22.44;100.00;101672.34;5092341;28;20393;-75
2023/08/13 10:45:27;;;;;;;4.05;1.35;;;;;;;22.66;100.00;101669.53;5057773;28;20032;-76
2023/08/13 10:47:59;;;;;;;8.00;1.65;;;;;;;22.85;100.00;101667.97;5093017;28;20024;-72
2023/08/13 10:50:28;;;;;;;2.47;1.10;;;;;;;23.22;100.00;101671.31;5092211;28;20126;-74
2023/08/13 10:53:01;;;;;;;8.10;1.40;;;;;;;24.14;100.00;101651.84;5092211;28;20028;-74
2023/08/13 10:55:28;;;;;;;4.05;1.30;;;;;;;25.58;96.35;101655.41;5092580;28;20038;-74
2023/08/13 10:57:54;;;;;;;4.80;1.38;;;;;;;26.73;81.84;101656.94;5092053;28;20383;-73
2023/08/13 11:00:24;;;;;;;5.88;1.50;;;;;;;26.42;89.30;101657.06;5091643;28;20040;-72
2023/08/13 11:02:57;;;;;;;3.88;1.25;;;;;;;25.67;93.45;101654.06;5091942;28;20081;-73
2023/08/13 11:05:22;;;;;;;4.55;1.30;;;;;;;25.98;100.00;101652.38;5091653;28;20039;-79
2023/08/13 11:07:49;;;;;;;3.35;1.10;;;;;;;26.68;87.53;101645.88;5091854;28;20024;-75
2023/08/13 11:10:17;;;;;;;3.20;1.25;;;;;;;26.90;69.24;101659.06;5092802;28;20065;-78